createdAt,value
2024-02-27T00:03:36.362Z,96212.36
2024-02-27T00:07:14.610Z,96219.55
2024-02-27T00:25:42.010Z,96214.83
2024-02-27T00:29:23.041Z,96218.21
2024-02-27T00:32:42.136Z,96218.67
2024-02-27T00:36:17.485Z,96219.16
2024-02-27T00:39:52.690Z,96221.34
2024-02-27T00:43:34.509Z,96224.77
2024-02-27T00:47:16.633Z,96226.66
2024-02-27T01:08:19.948Z,96236.63
2024-02-27T01:11:58.176Z,96237.62
2024-02-27T01:15:25.249Z,96240.38
2024-02-27T01:18:08.271Z,96239.34
2024-02-27T01:21:18.811Z,96241.88
2024-02-27T01:24:27.362Z,96236.95
2024-02-27T01:27:31.288Z,96244.79
2024-02-27T01:31:14.361Z,96242.45
2024-02-27T01:34:14.507Z,96236.69
2024-02-27T01:37:01.012Z,96237.23
2024-02-27T01:43:49.337Z,96242.90
2024-02-27T01:46:44.524Z,96237.02
2024-02-27T01:50:02.680Z,96243.86
2024-02-27T01:53:03.628Z,96243.40
2024-02-27T01:56:46.493Z,96235.95
2024-02-27T01:59:46.486Z,96238.41
2024-02-27T02:03:05.571Z,96242.80
2024-02-27T02:06:23.503Z,96241.65
2024-02-27T02:09:59.986Z,96238.44
2024-02-27T02:13:27.040Z,96237.27
2024-02-27T02:16:45.344Z,96240.39
2024-02-27T02:19:58.555Z,96238.95
2024-02-27T02:23:15.118Z,96237.25
2024-02-27T02:26:39.798Z,96238.67
2024-02-27T02:30:14.810Z,96246.97
2024-02-27T02:33:58.434Z,96244.45
2024-02-27T02:37:06.901Z,96249.45
2024-02-27T02:40:27.209Z,96247.38
2024-02-27T02:44:08.698Z,96250.48
2024-02-27T02:47:13.983Z,96252.05
2024-02-27T02:50:19.566Z,96246.17
2024-02-27T02:53:55.541Z,96251.69
2024-02-27T02:57:07.307Z,96250.73
2024-02-27T03:22:10.454Z,96263.46
2024-02-27T03:25:48.744Z,96268.30
2024-02-27T03:29:33.499Z,96267.55
2024-02-27T03:33:05.825Z,96270.98
2024-02-27T03:58:44.420Z,96275.27
2024-02-27T04:02:11.657Z,96275.36
2024-02-27T04:05:53.690Z,96276.05
2024-02-27T04:09:30.997Z,96278.02
2024-02-27T04:27:42.427Z,96283.55
2024-02-27T04:31:20.902Z,96284.53
2024-02-27T04:35:12.056Z,96292.21
2024-02-27T04:38:58.379Z,96292.30
2024-02-27T04:42:50.081Z,96291.13
2024-02-27T05:01:53.175Z,96311.23
2024-02-27T05:05:30.514Z,96312.98
2024-02-27T05:08:56.477Z,96315.70
2024-02-27T05:16:26.652Z,96330.34
2024-02-27T05:19:31.130Z,96337.10
2024-02-27T05:22:55.849Z,96337.41
2024-02-27T05:26:22.227Z,96342.55
2024-02-27T05:29:55.395Z,96343.96
2024-02-27T05:33:15.248Z,96349.28
2024-02-27T05:36:40.351Z,96351.42
2024-02-27T05:40:02.365Z,96358.48
2024-02-27T05:43:14.783Z,96355.36
2024-02-27T05:46:41.899Z,96357.87
2024-02-27T05:50:18.207Z,96358.80
2024-02-27T05:53:31.984Z,96362.51
2024-02-27T05:57:16.874Z,96361.39
2024-02-27T06:04:22.588Z,96372.56
2024-02-27T06:07:53.873Z,96374.94
2024-02-27T06:11:37.126Z,96383.28
2024-02-27T06:33:45.418Z,96394.38
2024-02-27T06:37:21.026Z,96394.83
2024-02-27T06:41:04.205Z,96397.21
2024-02-27T06:44:36.748Z,96397.29
2024-02-27T07:09:04.843Z,96416.73
2024-02-27T07:12:48.748Z,96414.98
2024-02-27T07:16:06.025Z,96420.72
2024-02-27T07:19:32.209Z,96424.48
2024-02-27T07:22:32.769Z,96425.85
2024-02-27T07:25:28.954Z,96430.83
2024-02-27T07:29:02.901Z,96427.77
2024-02-27T07:32:16.077Z,96420.02
2024-02-27T07:36:08.128Z,96414.95
2024-02-27T07:54:57.507Z,96415.64
2024-02-27T07:58:29.271Z,96415.46
2024-02-27T08:02:23.547Z,96415.56
2024-02-27T08:25:48.859Z,96411.07
2024-02-27T08:28:23.898Z,96409.73
2024-02-27T08:30:57.594Z,96413.48
2024-02-27T08:33:32.669Z,96414.50
2024-02-27T08:36:27.896Z,96412.15
2024-02-27T08:39:05.221Z,96408.85
2024-02-27T08:41:37.697Z,96403.50
2024-02-27T08:44:13.731Z,96403.67
2024-02-27T08:46:44.708Z,96406.31
2024-02-27T08:49:15.702Z,96405.20
2024-02-27T08:51:46.581Z,96401.80
2024-02-27T08:54:17.497Z,96398.39
2024-02-27T08:56:58.290Z,96398.02
2024-02-27T08:59:44.933Z,96396.14
2024-02-27T09:02:28.659Z,96392.14
2024-02-27T09:05:05.299Z,96391.20
2024-02-27T09:07:47.512Z,96391.24
2024-02-27T09:10:19.212Z,96387.97
2024-02-27T09:13:02.148Z,96384.98
2024-02-27T09:15:32.421Z,96382.65
2024-02-27T09:18:02.798Z,96384.45
2024-02-27T09:20:35.743Z,96379.55
2024-02-27T09:23:08.158Z,96376.85
2024-02-27T09:25:38.610Z,96373.82
2024-02-27T09:28:08.917Z,96377.45
2024-02-27T09:30:38.647Z,96374.69
2024-02-27T09:33:18.423Z,96375.05
2024-02-27T09:36:17.288Z,96371.05
2024-02-27T09:38:47.285Z,96372.13
2024-02-27T09:41:30.283Z,96370.04
2024-02-27T09:44:00.529Z,96367.60
2024-02-27T09:46:32.466Z,96371.85
2024-02-27T09:49:05.413Z,96368.67
2024-02-27T09:51:37.176Z,96367.60
2024-02-27T09:54:10.605Z,96368.24
2024-02-27T09:56:41.085Z,96368.70
2024-02-27T09:59:11.183Z,96366.00
2024-02-27T10:01:46.679Z,96361.30
2024-02-27T10:04:21.203Z,96356.85
2024-02-27T10:06:54.138Z,96355.67
2024-02-27T10:09:27.795Z,96347.33
2024-02-27T10:11:58.044Z,96347.77
2024-02-27T10:14:36.120Z,96339.50
2024-02-27T10:17:10.291Z,96334.90
2024-02-27T10:19:40.702Z,96330.57
2024-02-27T10:22:12.196Z,96328.48
2024-02-27T10:24:42.461Z,96324.23
2024-02-27T10:27:38.402Z,96322.61
2024-02-27T10:30:16.861Z,96324.38
2024-02-27T10:32:47.108Z,96320.61
2024-02-27T10:35:18.729Z,96320.84
2024-02-27T10:37:49.106Z,96318.02
2024-02-27T10:40:20.442Z,96315.19
2024-02-27T10:42:50.106Z,96316.17
2024-02-27T10:45:21.141Z,96309.33
2024-02-27T10:47:50.955Z,96314.16
2024-02-27T10:50:23.062Z,96314.48
2024-02-27T10:52:57.887Z,96310.88
2024-02-27T10:55:30.825Z,96307.53
2024-02-27T10:58:01.863Z,96300.23
2024-02-27T11:00:32.744Z,96295.40
2024-02-27T11:03:05.801Z,96293.52
2024-02-27T11:05:37.297Z,96292.26
2024-02-27T11:08:08.906Z,96288.13
2024-02-27T11:10:40.512Z,96291.38
2024-02-27T11:13:15.078Z,96288.68
2024-02-27T11:15:48.190Z,96283.15
2024-02-27T11:18:27.171Z,96277.25
2024-02-27T11:20:57.788Z,96278.52
2024-02-27T11:23:35.732Z,96277.17
2024-02-27T11:26:06.409Z,96268.64
2024-02-27T11:28:42.489Z,96274.77
2024-02-27T11:31:12.755Z,96280.20
2024-02-27T11:34:03.346Z,96280.25
2024-02-27T11:36:33.506Z,96277.60
2024-02-27T11:39:03.196Z,96279.23
2024-02-27T11:41:34.319Z,96280.28
2024-02-27T11:44:09.245Z,96280.84
2024-02-27T11:46:46.559Z,96278.12
2024-02-27T11:49:41.769Z,96274.77
2024-02-27T11:52:12.312Z,96269.89
2024-02-27T11:54:42.748Z,96265.39
2024-02-27T11:57:13.952Z,96266.12
2024-02-27T11:59:45.808Z,96263.13
2024-02-27T12:02:19.645Z,96257.75
2024-02-27T12:04:57.112Z,96254.90
2024-02-27T12:07:53.382Z,96257.09
2024-02-27T12:10:26.791Z,96250.34
2024-02-27T12:12:57.675Z,96250.08
2024-02-27T12:15:30.912Z,96248.19
2024-02-27T12:18:13.518Z,96247.27
2024-02-27T12:21:08.618Z,96240.22
2024-02-27T12:23:39.269Z,96239.79
2024-02-27T12:26:09.630Z,96250.38
2024-02-27T12:28:39.707Z,96245.73
2024-02-27T12:31:10.032Z,96247.49
2024-02-27T12:33:40.670Z,96243.65
2024-02-27T12:36:17.089Z,96248.21
2024-02-27T12:38:53.339Z,96240.55
2024-02-27T12:41:32.705Z,96243.51
2024-02-27T12:44:04.938Z,96243.84
2024-02-27T12:46:35.109Z,96241.59
2024-02-27T12:49:05.516Z,96236.75
2024-02-27T12:51:35.687Z,96236.48
2024-02-27T12:54:08.755Z,96234.00
2024-02-27T12:56:39.338Z,96232.55
2024-02-27T12:59:12.466Z,96238.42
2024-02-27T13:01:43.146Z,96231.36
2024-02-27T13:04:15.388Z,96229.59
2024-02-27T13:06:45.867Z,96231.46
2024-02-27T13:09:17.141Z,96225.86
2024-02-27T13:11:47.239Z,96227.55
2024-02-27T13:14:17.256Z,96228.23
2024-02-27T13:16:47.363Z,96227.52
2024-02-27T13:19:17.850Z,96222.38
2024-02-27T13:21:47.779Z,96227.77
2024-02-27T13:24:18.000Z,96223.58
2024-02-27T13:26:50.066Z,96227.39
2024-02-27T13:29:19.785Z,96227.23
2024-02-27T13:31:51.026Z,96225.98
2024-02-27T13:34:23.953Z,96225.82
2024-02-27T13:36:54.520Z,96226.86
2024-02-27T13:39:24.481Z,96225.50
2024-02-27T13:41:56.436Z,96222.23
2024-02-27T13:44:25.939Z,96225.33
2024-02-27T13:46:57.355Z,96225.07
2024-02-27T13:49:26.961Z,96219.70
2024-02-27T13:51:58.037Z,96218.77
2024-02-27T13:54:29.235Z,96219.95
2024-02-27T13:56:59.236Z,96216.27
2024-02-27T13:59:28.841Z,96216.30
2024-02-27T14:01:58.874Z,96216.50
2024-02-27T14:04:30.425Z,96217.26
2024-02-27T14:07:01.033Z,96214.27
2024-02-27T14:09:30.689Z,96214.48
2024-02-27T14:12:00.914Z,96210.31
2024-02-27T14:14:31.055Z,96209.35
2024-02-27T14:17:00.513Z,96206.98
2024-02-27T14:19:30.465Z,96204.06
2024-02-27T14:22:00.585Z,96202.02
2024-02-27T14:24:30.622Z,96204.40
2024-02-27T14:27:00.600Z,96206.45
2024-02-27T14:29:30.457Z,96202.19
2024-02-27T14:32:03.019Z,96201.44
2024-02-27T14:34:33.488Z,96202.36
2024-02-27T14:37:03.922Z,96205.91
2024-02-27T14:39:33.754Z,96203.09
2024-02-27T14:42:04.083Z,96212.84
2024-02-27T14:44:34.128Z,96213.30
2024-02-27T14:47:04.231Z,96211.12
2024-02-27T14:49:33.241Z,96213.20
2024-02-27T14:52:04.137Z,96213.57
2024-02-27T14:54:34.600Z,96212.67
2024-02-27T14:57:04.729Z,96217.99
2024-02-27T14:59:34.675Z,96215.46
2024-02-27T15:02:05.429Z,96220.27
2024-02-27T15:04:35.250Z,96219.92
2024-02-27T15:07:05.579Z,96221.26
2024-02-27T15:09:35.985Z,96223.45
2024-02-27T15:12:10.324Z,96222.88
2024-02-27T15:14:40.421Z,96228.33
2024-02-27T15:17:10.096Z,96234.42
2024-02-27T15:19:40.554Z,96235.85
2024-02-27T15:22:10.849Z,96239.45
2024-02-27T15:24:40.486Z,96242.98
2024-02-27T15:27:10.110Z,96240.14
2024-02-27T15:29:40.180Z,96243.02
2024-02-27T15:32:10.481Z,96240.08
2024-02-27T15:34:40.233Z,96246.44
2024-02-27T15:37:09.911Z,96246.54
2024-02-27T15:39:40.050Z,96249.09
2024-02-27T15:42:10.478Z,96250.88
2024-02-27T15:44:40.912Z,96257.81
2024-02-27T15:47:11.116Z,96259.98
2024-02-27T15:49:42.431Z,96265.14
2024-02-27T15:52:12.885Z,96263.54
2024-02-27T15:54:43.186Z,96269.04
2024-02-27T15:57:13.237Z,96265.70
2024-02-27T15:59:44.245Z,96268.50
2024-02-27T16:02:17.628Z,96274.08
2024-02-27T16:04:57.983Z,96274.89
2024-02-27T16:07:46.368Z,96279.70
2024-02-27T16:10:20.481Z,96284.27
2024-02-27T16:12:50.821Z,96287.14
2024-02-27T16:15:20.999Z,96289.48
2024-02-27T16:18:25.224Z,96287.56
2024-02-27T16:20:55.281Z,96295.62
2024-02-27T16:23:27.139Z,96297.49
2024-02-27T16:25:58.130Z,96298.30
2024-02-27T16:28:28.410Z,96298.90
2024-02-27T16:30:59.091Z,96296.46
2024-02-27T16:33:31.771Z,96291.58
2024-02-27T16:36:03.621Z,96295.16
2024-02-27T16:38:34.631Z,96298.27
2024-02-27T16:41:14.617Z,96301.44
2024-02-27T16:43:51.349Z,96304.67
2024-02-27T16:46:27.454Z,96305.18
2024-02-27T16:49:04.244Z,96312.96
2024-02-27T16:51:34.855Z,96310.80
2024-02-27T16:54:07.824Z,96318.89
2024-02-27T16:57:20.354Z,96320.93
2024-02-27T16:59:54.306Z,96326.98
2024-02-27T17:02:24.504Z,96330.67
2024-02-27T17:04:57.688Z,96333.28
2024-02-27T17:07:28.437Z,96337.55
2024-02-27T17:10:01.422Z,96342.77
2024-02-27T17:12:36.940Z,96345.49
2024-02-27T17:15:20.272Z,96349.66
2024-02-27T17:17:53.126Z,96352.87
2024-02-27T17:20:26.426Z,96351.45
2024-02-27T17:23:20.302Z,96352.55
2024-02-27T17:26:05.119Z,96355.57
2024-02-27T17:28:38.466Z,96354.42
2024-02-27T17:31:40.407Z,96357.41
2024-02-27T17:34:20.582Z,96363.89
2024-02-27T17:37:14.783Z,96366.58
2024-02-27T17:40:17.994Z,96366.54
2024-02-27T17:43:32.371Z,96366.18
2024-02-27T17:46:11.825Z,96369.77
2024-02-27T17:48:42.347Z,96370.91
2024-02-27T17:51:35.411Z,96372.70
2024-02-27T17:54:29.568Z,96375.47
2024-02-27T17:57:21.932Z,96379.98
2024-02-27T18:00:03.427Z,96385.29
2024-02-27T18:02:33.600Z,96385.23
2024-02-27T18:05:13.129Z,96383.46
2024-02-27T18:07:56.316Z,96384.95
2024-02-27T18:10:27.749Z,96391.12
2024-02-27T18:12:58.333Z,96391.96
2024-02-27T18:15:48.992Z,96399.82
2024-02-27T18:18:28.867Z,96394.91
2024-02-27T18:21:52.765Z,96397.41
2024-02-27T18:24:42.500Z,96399.48
2024-02-27T18:27:35.684Z,96400.31
2024-02-27T18:30:12.675Z,96398.16
2024-02-27T18:33:14.239Z,96397.55
2024-02-27T18:36:10.565Z,96398.63
2024-02-27T18:38:50.751Z,96402.67
2024-02-27T18:41:37.567Z,96404.88
2024-02-27T18:45:06.120Z,96404.53
2024-02-27T18:48:00.343Z,96410.06
2024-02-27T18:50:56.736Z,96413.39
2024-02-27T18:53:58.481Z,96418.02
2024-02-27T18:56:59.436Z,96418.85
2024-02-27T19:00:22.622Z,96422.96
2024-02-27T19:03:02.892Z,96428.26
2024-02-27T19:05:58.797Z,96428.05
2024-02-27T19:08:33.561Z,96432.66
2024-02-27T19:11:11.836Z,96441.59
2024-02-27T19:13:48.569Z,96441.02
2024-02-27T19:17:18.304Z,96441.18
2024-02-27T19:19:51.280Z,96446.07
2024-02-27T19:22:54.036Z,96446.89
2024-02-27T19:25:37.771Z,96447.48
2024-02-27T19:28:42.415Z,96452.45
2024-02-27T19:32:27.879Z,96457.13
2024-02-27T19:35:33.221Z,96458.89
2024-02-27T19:38:54.779Z,96462.14
2024-02-27T19:42:21.453Z,96461.10
2024-02-27T19:45:01.192Z,96456.67
2024-02-27T19:48:15.225Z,96458.77
2024-02-27T19:51:14.563Z,96461.19
2024-02-27T19:54:32.929Z,96464.11
2024-02-27T19:58:26.008Z,96469.32
2024-02-27T20:01:56.398Z,96469.77
2024-02-27T20:05:31.714Z,96475.18
2024-02-27T20:08:31.526Z,96481.84
2024-02-27T20:12:02.835Z,96481.02
2024-02-27T20:15:08.149Z,96480.48
2024-02-27T20:18:59.311Z,96488.20
2024-02-27T20:22:45.260Z,96489.67
2024-02-27T20:26:37.753Z,96488.39
2024-02-27T20:30:22.213Z,96495.44
2024-02-27T20:34:07.426Z,96501.70
2024-02-27T20:56:27.056Z,96508.95
2024-02-27T20:59:59.524Z,96517.95
2024-02-27T21:02:48.584Z,96523.13
2024-02-27T21:06:00.275Z,96521.89
2024-02-27T21:09:02.666Z,96519.84
2024-02-27T21:12:38.918Z,96523.30
2024-02-27T21:16:20.658Z,96524.45
2024-02-27T21:20:12.260Z,96518.37
2024-02-27T21:23:42.960Z,96522.77
2024-02-27T21:27:14.686Z,96522.15
2024-02-27T21:30:34.683Z,96522.74
2024-02-27T21:34:11.555Z,96526.48
2024-02-27T21:40:47.302Z,96525.66
2024-02-27T21:44:06.045Z,96528.67
2024-02-27T21:47:27.598Z,96529.48
2024-02-27T21:50:57.450Z,96538.31
2024-02-27T21:57:59.481Z,96541.73
2024-02-27T22:00:48.196Z,96539.29
2024-02-27T22:03:54.790Z,96547.60
2024-02-27T22:07:18.664Z,96549.33
2024-02-27T22:10:10.490Z,96548.39
2024-02-27T22:13:36.791Z,96549.13
2024-02-27T22:16:58.109Z,96553.05
2024-02-27T22:20:41.376Z,96550.62
2024-02-27T22:24:05.465Z,96556.46
2024-02-27T22:55:49.113Z,96578.58
2024-02-27T22:59:04.262Z,96580.00
2024-02-27T23:02:32.294Z,96577.90
2024-02-27T23:06:14.971Z,96580.84
2024-02-27T23:09:57.368Z,96580.36
2024-02-27T23:13:50.480Z,96582.66
2024-02-27T23:20:41.378Z,96585.45
